Randolph, Minnesota
Current Conditions -  °F | °C
As of 3:45 AM on Thursday 29 Jan 2015 (Local Time) from KSYN Reporting Station
Overcast Overcast  
Wind Chill: 24°   Ceiling: 1000
Heat Index: 34°   Visibility: 4mi
Dew Point: 30°   Wind: 15mph
Humidity: 87%   Direction: 320°NW
Pressure: 29.91"   Gusts: NA
Location:  44.53°N, 93.02°W
Report Text: KSYN 290945Z AUTO 32013KT 4SM OVC010 01/M01 A2991 RMK AO2
Loading
Personal Weather Stations






























Interactive Weather Map New forecast layout! Learn more

10-Day Weather Forecast

Advertisements
Track Severe Weather on mobile